createdAt,value
2018-10-16T00:02:03.062Z,101334.72
2018-10-16T00:04:30.057Z,101336.55
2018-10-16T00:06:57.054Z,101340.07
2018-10-16T00:09:24.022Z,101333.52
2018-10-16T00:11:58.686Z,101330.16
2018-10-16T00:14:25.684Z,101328.59
2018-10-16T00:16:52.686Z,101323.62
2018-10-16T00:19:20.070Z,101325.77
2018-10-16T00:21:47.059Z,101324.98
2018-10-16T00:24:14.354Z,101327.33
2018-10-16T00:26:41.685Z,101324.73
2018-10-16T00:29:09.029Z,101329.59
2018-10-16T00:31:36.110Z,101329.39
2018-10-16T00:34:03.107Z,101327.07
2018-10-16T00:36:30.146Z,101328.54
2018-10-16T00:38:57.163Z,101323.83
2018-10-16T00:41:24.145Z,101327.89
2018-10-16T00:43:51.143Z,101326.48
2018-10-16T00:46:18.146Z,101327.02
2018-10-16T00:48:45.189Z,101329.72
2018-10-16T00:51:12.172Z,101332.59
2018-10-16T00:53:39.202Z,101329.89
2018-10-16T00:56:06.227Z,101332.42
2018-10-16T00:58:33.210Z,101326.86
2018-10-16T01:01:00.200Z,101336.66
2018-10-16T01:03:27.177Z,101332.59
2018-10-16T01:05:54.170Z,101334.98
2018-10-16T01:08:21.184Z,101336.48
2018-10-16T01:10:48.177Z,101342.52
2018-10-16T01:13:15.174Z,101339.75
2018-10-16T01:15:42.142Z,101343.75
2018-10-16T01:18:09.130Z,101352.96
2018-10-16T01:20:36.102Z,101350.25
2018-10-16T01:23:03.090Z,101351.94
2018-10-16T01:25:30.068Z,101350.58
2018-10-16T01:27:57.034Z,101334.13
2018-10-16T01:30:24.010Z,101340.61
2018-10-16T01:32:51.026Z,101344.25
2018-10-16T01:35:18.006Z,101330.48
2018-10-16T01:37:44.973Z,101343.42
2018-10-16T01:40:11.949Z,101337.89
2018-10-16T01:42:38.939Z,101349.34
2018-10-16T01:45:06.272Z,101337.80
2018-10-16T01:47:33.269Z,101342.52
2018-10-16T01:50:00.285Z,101348.58
2018-10-16T01:52:27.301Z,101351.73
2018-10-16T01:54:54.294Z,101350.81
2018-10-16T01:57:21.257Z,101343.98
2018-10-16T01:59:48.241Z,101343.95
2018-10-16T02:02:15.280Z,101345.75
2018-10-16T02:04:42.340Z,101348.78
2018-10-16T02:07:09.357Z,101338.13
2018-10-16T02:09:36.338Z,101352.57
2018-10-16T02:12:03.394Z,101354.04
2018-10-16T02:14:30.389Z,101356.58
2018-10-16T02:16:57.390Z,101350.73
2018-10-16T02:19:24.374Z,101352.85
2018-10-16T02:21:51.354Z,101354.20
2018-10-16T02:24:18.369Z,101347.75
2018-10-16T02:26:45.353Z,101348.29
2018-10-16T02:29:12.354Z,101343.58
2018-10-16T02:31:39.356Z,101338.87
2018-10-16T02:34:06.335Z,101342.61
2018-10-16T02:36:33.399Z,101351.01
2018-10-16T02:39:00.382Z,101355.55
2018-10-16T02:41:27.389Z,101363.56
2018-10-16T02:43:54.388Z,101358.23
2018-10-16T02:46:21.373Z,101359.26
2018-10-16T02:48:48.363Z,101363.58
2018-10-16T02:51:15.350Z,101359.78
2018-10-16T02:53:42.356Z,101364.77
2018-10-16T02:56:09.354Z,101365.52
2018-10-16T02:58:36.378Z,101368.36
2018-10-16T03:01:03.710Z,101364.52
2018-10-16T03:03:33.242Z,101362.83
2018-10-16T03:06:00.204Z,101372.56
2018-10-16T03:08:27.195Z,101375.11
2018-10-16T03:10:54.174Z,101371.38
2018-10-16T03:15:54.859Z,101373.91
2018-10-16T03:18:21.816Z,101367.92
2018-10-16T03:20:49.518Z,101372.36
2018-10-16T03:23:16.513Z,101372.68
2018-10-16T03:25:43.500Z,101380.09
2018-10-16T03:28:10.487Z,101373.13
2018-10-16T03:30:37.503Z,101379.13
2018-10-16T03:33:04.466Z,101378.30
2018-10-16T03:35:31.434Z,101373.83
2018-10-16T03:37:58.442Z,101372.63
2018-10-16T03:40:25.432Z,101367.55
2018-10-16T03:42:52.377Z,101368.89
2018-10-16T03:45:19.361Z,101368.83
2018-10-16T03:47:46.475Z,101370.02
2018-10-16T03:50:13.326Z,101370.30
2018-10-16T03:52:40.290Z,101367.22
2018-10-16T03:55:10.272Z,101374.05
2018-10-16T03:57:37.225Z,101378.44
2018-10-16T04:00:04.793Z,101374.11
2018-10-16T04:02:31.731Z,101368.17
2018-10-16T04:04:58.674Z,101369.45
2018-10-16T04:07:25.624Z,101377.58
2018-10-16T04:09:52.570Z,101381.31
2018-10-16T04:12:19.521Z,101383.59
2018-10-16T04:14:46.467Z,101380.20
2018-10-16T04:17:13.394Z,101378.92
2018-10-16T04:19:40.295Z,101387.72
2018-10-16T04:22:07.221Z,101383.39
2018-10-16T04:24:34.214Z,101388.98
2018-10-16T04:27:01.151Z,101385.83
2018-10-16T04:29:28.133Z,101385.12
2018-10-16T04:31:55.059Z,101389.19
2018-10-16T04:34:21.968Z,101386.86
2018-10-16T04:36:48.889Z,101388.39
2018-10-16T04:39:15.795Z,101393.80
2018-10-16T04:41:43.033Z,101396.66
2018-10-16T04:44:09.912Z,101402.36
2018-10-16T04:46:36.925Z,101401.70
2018-10-16T04:49:04.236Z,101408.20
2018-10-16T04:51:31.149Z,101406.25
2018-10-16T04:53:58.056Z,101408.31
2018-10-16T04:56:24.965Z,101402.89
2018-10-16T04:58:51.891Z,101405.60
2018-10-16T05:01:18.822Z,101411.60
2018-10-16T05:03:45.729Z,101408.50
2018-10-16T05:06:12.674Z,101413.33
2018-10-16T05:08:39.685Z,101418.53
2018-10-16T05:11:06.602Z,101422.74
2018-10-16T05:13:33.526Z,101419.29
2018-10-16T05:16:00.464Z,101421.29
2018-10-16T05:18:27.389Z,101418.39
2018-10-16T05:20:54.297Z,101420.03
2018-10-16T05:23:21.217Z,101426.34
2018-10-16T05:25:48.129Z,101428.41
2018-10-16T05:28:15.050Z,101429.38
2018-10-16T05:30:41.971Z,101433.33
2018-10-16T05:33:08.890Z,101428.55
2018-10-16T05:35:35.808Z,101427.38
2018-10-16T05:38:02.781Z,101432.80
2018-10-16T05:40:29.746Z,101440.00
2018-10-16T05:42:56.676Z,101436.38
2018-10-16T05:45:24.920Z,101439.25
2018-10-16T05:47:51.869Z,101445.33
2018-10-16T05:50:18.797Z,101443.44
2018-10-16T05:52:45.720Z,101451.55
2018-10-16T05:55:12.674Z,101456.91
2018-10-16T05:57:39.618Z,101462.77
2018-10-16T06:00:18.149Z,101459.08
2018-10-16T06:02:46.132Z,101458.05
2018-10-16T06:05:13.092Z,101470.57
2018-10-16T06:07:40.525Z,101477.02
2018-10-16T06:10:07.484Z,101475.66
2018-10-16T06:12:34.389Z,101485.14
2018-10-16T06:15:01.479Z,101482.58
2018-10-16T06:17:28.716Z,101480.38
2018-10-16T06:19:55.653Z,101489.48
2018-10-16T06:22:22.570Z,101494.30
2018-10-16T06:24:49.514Z,101499.84
2018-10-16T06:27:16.430Z,101501.20
2018-10-16T06:29:43.357Z,101508.67
2018-10-16T06:32:10.265Z,101507.03
2018-10-16T06:34:37.261Z,101510.36
2018-10-16T06:37:04.525Z,101516.09
2018-10-16T06:39:31.456Z,101521.14
2018-10-16T06:41:58.373Z,101515.34
2018-10-16T06:44:25.274Z,101516.81
2018-10-16T06:46:52.181Z,101514.38
2018-10-16T06:49:19.085Z,101521.32
2018-10-16T06:51:46.000Z,101519.31
2018-10-16T06:54:12.912Z,101520.84
2018-10-16T06:56:39.889Z,101519.27
2018-10-16T06:59:06.772Z,101521.36
2018-10-16T07:01:33.688Z,101525.84
2018-10-16T07:04:00.588Z,101532.00
2018-10-16T07:06:27.563Z,101526.71
2018-10-16T07:08:54.437Z,101522.73
2018-10-16T07:11:21.351Z,101524.87
2018-10-16T07:13:48.273Z,101530.76
2018-10-16T07:16:15.345Z,101525.77
2018-10-16T07:18:42.265Z,101525.92
2018-10-16T07:21:09.220Z,101529.09
2018-10-16T07:23:36.168Z,101527.22
2018-10-16T07:26:03.057Z,101527.66
2018-10-16T07:28:29.969Z,101530.70
2018-10-16T07:30:56.893Z,101539.31
2018-10-16T07:33:23.801Z,101537.95
2018-10-16T07:35:50.718Z,101540.99
2018-10-16T07:38:17.697Z,101541.83
2018-10-16T07:40:44.585Z,101546.42
2018-10-16T07:43:11.505Z,101544.23
2018-10-16T07:45:38.505Z,101542.56
2018-10-16T07:48:05.431Z,101542.14
2018-10-16T07:50:32.405Z,101541.70
2018-10-16T07:52:59.306Z,101539.42
2018-10-16T07:55:26.215Z,101542.55
2018-10-16T07:57:53.135Z,101542.22
2018-10-16T08:00:20.061Z,101535.63
2018-10-16T08:02:47.000Z,101541.87
2018-10-16T08:05:13.918Z,101542.80
2018-10-16T08:07:41.357Z,101545.25
2018-10-16T08:10:09.516Z,101543.90
2018-10-16T08:12:36.437Z,101549.36
2018-10-16T08:15:04.181Z,101554.77
2018-10-16T08:17:31.092Z,101556.55
2018-10-16T08:19:58.008Z,101557.23
2018-10-16T08:22:24.929Z,101549.85
2018-10-16T08:24:51.837Z,101557.34
2018-10-16T08:27:18.749Z,101554.91
2018-10-16T08:29:45.655Z,101559.68
2018-10-16T08:32:12.587Z,101559.70
2018-10-16T08:34:39.519Z,101553.09
2018-10-16T08:37:09.132Z,101552.69
2018-10-16T08:39:38.160Z,101553.27
2018-10-16T08:44:18.741Z,101549.98
2018-10-16T08:46:57.492Z,101542.88
2018-10-16T08:49:35.988Z,101553.23
2018-10-16T08:52:02.891Z,101555.34
2018-10-16T08:54:29.824Z,101555.10
2018-10-16T08:56:56.741Z,101553.48
2018-10-16T08:59:23.672Z,101557.88
2018-10-16T09:01:50.589Z,101553.27
2018-10-16T09:04:17.486Z,101551.80
2018-10-16T09:06:44.420Z,101552.53
2018-10-16T09:09:13.477Z,101554.41
2018-10-16T09:11:41.919Z,101548.91
2018-10-16T09:14:08.956Z,101555.92
2018-10-16T09:16:36.373Z,101555.52
2018-10-16T09:19:03.379Z,101559.39
2018-10-16T09:21:30.321Z,101563.80
2018-10-16T09:23:57.257Z,101570.30
2018-10-16T09:26:24.164Z,101566.73
2018-10-16T09:28:51.085Z,101570.70
2018-10-16T09:31:18.065Z,101568.33
2018-10-16T09:33:45.044Z,101566.57
2018-10-16T09:36:11.984Z,101572.64
2018-10-16T09:38:38.925Z,101582.84
2018-10-16T09:41:06.093Z,101579.11
2018-10-16T09:43:33.020Z,101582.78
2018-10-16T09:46:00.352Z,101586.16
2018-10-16T09:48:27.248Z,101577.94
2018-10-16T09:50:54.264Z,101581.45
2018-10-16T09:53:21.185Z,101577.50
2018-10-16T09:55:48.119Z,101581.23
2018-10-16T09:58:15.037Z,101571.51
2018-10-16T10:00:47.682Z,101570.49
2018-10-16T10:03:14.601Z,101571.97
2018-10-16T10:05:41.524Z,101578.77
2018-10-16T10:08:08.452Z,101587.23
2018-10-16T10:10:35.381Z,101581.52
2018-10-16T10:13:02.333Z,101581.87
2018-10-16T10:15:29.328Z,101580.81
2018-10-16T10:17:56.264Z,101575.73
2018-10-16T10:20:23.212Z,101579.17
2018-10-16T10:22:50.153Z,101578.95
2018-10-16T10:25:17.160Z,101582.45
2018-10-16T10:27:44.013Z,101586.13
2018-10-16T10:30:11.609Z,101590.41
2018-10-16T10:32:38.530Z,101582.61
2018-10-16T10:35:06.892Z,101588.13
2018-10-16T10:37:34.609Z,101579.29
2018-10-16T10:40:02.003Z,101576.65
2018-10-16T10:42:29.044Z,101571.48
2018-10-16T10:44:55.963Z,101573.28
2018-10-16T10:47:22.852Z,101582.20
2018-10-16T10:49:49.820Z,101578.97
2018-10-16T10:52:16.844Z,101581.36
2018-10-16T10:54:43.752Z,101574.43
2018-10-16T10:57:10.804Z,101575.18
2018-10-16T10:59:37.602Z,101570.08
2018-10-16T11:02:05.696Z,101570.93
2018-10-16T11:04:32.597Z,101572.30
2018-10-16T11:06:59.557Z,101574.20
2018-10-16T11:09:26.468Z,101572.66
2018-10-16T11:11:56.174Z,101576.23
2018-10-16T11:14:24.117Z,101569.56
2018-10-16T11:16:51.033Z,101571.16
2018-10-16T11:19:18.217Z,101572.83
2018-10-16T11:21:45.302Z,101573.38
2018-10-16T11:24:12.324Z,101571.94
2018-10-16T11:26:39.387Z,101575.17
2018-10-16T11:29:06.302Z,101572.33
2018-10-16T11:31:33.269Z,101571.03
2018-10-16T11:34:00.145Z,101573.74
2018-10-16T11:36:27.108Z,101581.09
2018-10-16T11:38:54.030Z,101579.31
2018-10-16T11:41:20.941Z,101572.45
2018-10-16T11:43:47.844Z,101575.00
2018-10-16T11:46:14.765Z,101573.45
2018-10-16T11:48:41.753Z,101570.41
2018-10-16T11:51:08.665Z,101578.48
2018-10-16T11:53:35.582Z,101572.06
2018-10-16T11:56:02.556Z,101571.25
2018-10-16T11:58:29.470Z,101568.10
2018-10-16T12:00:56.428Z,101569.70
2018-10-16T12:03:23.372Z,101568.43
2018-10-16T12:05:50.769Z,101568.73
2018-10-16T12:08:17.704Z,101570.77
2018-10-16T12:10:44.656Z,101566.84
2018-10-16T12:13:11.633Z,101564.68
2018-10-16T12:15:38.517Z,101571.48
2018-10-16T12:18:09.368Z,101571.78
2018-10-16T12:20:40.522Z,101574.13
2018-10-16T12:23:07.448Z,101571.78
2018-10-16T12:25:34.413Z,101577.20
2018-10-16T12:28:01.403Z,101572.27
2018-10-16T12:30:28.413Z,101573.38
2018-10-16T12:32:55.389Z,101573.38
2018-10-16T12:35:22.329Z,101570.64
2018-10-16T12:37:49.264Z,101571.22
2018-10-16T12:40:16.351Z,101573.34
2018-10-16T12:42:49.874Z,101572.86
2018-10-16T12:45:16.834Z,101571.19
2018-10-16T12:47:43.740Z,101574.69
2018-10-16T12:50:10.749Z,101576.65
2018-10-16T12:52:37.606Z,101577.30
2018-10-16T12:55:04.587Z,101582.50
2018-10-16T12:57:31.518Z,101579.59
2018-10-16T12:59:58.499Z,101581.70
2018-10-16T13:02:25.381Z,101577.92
2018-10-16T13:04:52.354Z,101581.66
2018-10-16T13:07:31.070Z,101577.55
2018-10-16T13:09:57.994Z,101576.11
2018-10-16T13:12:24.925Z,101574.41
2018-10-16T13:14:51.868Z,101578.52
2018-10-16T13:17:18.886Z,101581.09
2018-10-16T13:19:45.748Z,101578.05
2018-10-16T13:22:12.797Z,101573.16
2018-10-16T13:24:39.866Z,101580.79
2018-10-16T13:27:06.935Z,101578.19
2018-10-16T13:29:34.190Z,101581.82
2018-10-16T13:32:01.823Z,101581.72
2018-10-16T13:37:02.481Z,101584.42
2018-10-16T13:39:29.446Z,101580.75
2018-10-16T13:41:56.358Z,101579.97
2018-10-16T13:44:23.281Z,101577.16
2018-10-16T13:46:50.203Z,101585.87
2018-10-16T13:49:17.102Z,101580.30
2018-10-16T13:51:44.005Z,101576.97
2018-10-16T13:54:10.951Z,101583.00
2018-10-16T13:56:37.977Z,101578.59
2018-10-16T13:59:11.694Z,101581.45
2018-10-16T14:01:38.616Z,101588.30
2018-10-16T14:04:05.748Z,101585.08
2018-10-16T14:06:32.665Z,101591.11
2018-10-16T14:09:00.148Z,101590.45
2018-10-16T14:11:27.113Z,101588.48
2018-10-16T14:13:54.038Z,101591.10
2018-10-16T14:16:20.965Z,101587.86
2018-10-16T14:18:47.889Z,101590.00
2018-10-16T14:21:14.820Z,101588.06
2018-10-16T14:23:41.820Z,101583.36
2018-10-16T14:26:08.962Z,101589.14
2018-10-16T14:28:35.793Z,101585.89
2018-10-16T14:31:02.726Z,101595.09
2018-10-16T14:33:29.677Z,101591.84
2018-10-16T14:35:56.598Z,101593.13
2018-10-16T14:38:23.593Z,101598.81
2018-10-16T14:40:50.512Z,101602.28
2018-10-16T14:43:17.405Z,101603.82
2018-10-16T14:45:44.396Z,101604.29
2018-10-16T14:48:11.852Z,101608.06
2018-10-16T14:50:38.820Z,101606.73
2018-10-16T14:53:05.814Z,101615.37
2018-10-16T14:55:32.750Z,101611.73
2018-10-16T14:57:59.721Z,101615.13
2018-10-16T15:00:26.710Z,101618.23
2018-10-16T15:02:53.926Z,101621.13
2018-10-16T15:05:20.845Z,101619.64
2018-10-16T15:07:47.814Z,101621.78
2018-10-16T15:10:14.816Z,101616.41
2018-10-16T15:12:41.812Z,101614.89
2018-10-16T15:15:08.906Z,101617.27
2018-10-16T15:17:35.844Z,101621.08
2018-10-16T15:20:02.837Z,101628.83
2018-10-16T15:22:29.721Z,101627.09
2018-10-16T15:24:56.636Z,101627.95
2018-10-16T15:27:23.576Z,101632.15
2018-10-16T15:29:50.846Z,101630.59
2018-10-16T15:32:17.776Z,101635.17
2018-10-16T15:34:45.879Z,101628.63
2018-10-16T15:37:12.841Z,101632.27
2018-10-16T15:39:39.761Z,101627.31
2018-10-16T15:42:06.928Z,101628.15
2018-10-16T15:44:33.817Z,101630.35
2018-10-16T15:47:00.749Z,101629.38
2018-10-16T15:49:27.673Z,101630.98
2018-10-16T15:51:54.594Z,101640.69
2018-10-16T15:54:21.521Z,101636.97
2018-10-16T15:56:48.445Z,101635.06
2018-10-16T15:59:15.386Z,101639.09
2018-10-16T16:01:42.308Z,101639.85
2018-10-16T16:04:09.274Z,101642.48
2018-10-16T16:06:36.165Z,101643.78
2018-10-16T16:09:04.218Z,101642.03
2018-10-16T16:11:31.153Z,101646.34
2018-10-16T16:13:58.155Z,101652.89
2018-10-16T16:16:25.021Z,101659.17
2018-10-16T16:18:51.984Z,101655.45
2018-10-16T16:21:18.938Z,101655.13
2018-10-16T16:23:45.875Z,101659.59
2018-10-16T16:26:12.890Z,101663.27
2018-10-16T16:28:39.798Z,101661.78
2018-10-16T16:31:06.745Z,101669.45
2018-10-16T16:33:33.665Z,101676.80
2018-10-16T16:36:00.630Z,101680.33
2018-10-16T16:38:27.557Z,101676.16
2018-10-16T16:40:54.541Z,101681.00
2018-10-16T16:43:21.438Z,101685.53
2018-10-16T16:45:48.374Z,101684.02
2018-10-16T16:48:15.359Z,101683.39
2018-10-16T16:50:42.285Z,101688.95
2018-10-16T16:53:15.882Z,101683.83
2018-10-16T16:55:42.791Z,101690.55
2018-10-16T16:58:09.745Z,101689.84
2018-10-16T17:00:36.672Z,101694.98
2018-10-16T17:03:03.609Z,101693.44
2018-10-16T17:05:30.585Z,101694.95
2018-10-16T17:07:57.561Z,101694.95
2018-10-16T17:10:24.556Z,101696.44
2018-10-16T17:12:51.469Z,101695.50
2018-10-16T17:15:18.414Z,101700.56
2018-10-16T17:17:46.111Z,101701.94
2018-10-16T17:20:13.139Z,101705.95
2018-10-16T17:22:39.998Z,101708.67
2018-10-16T17:25:08.441Z,101710.86
2018-10-16T17:27:35.258Z,101711.09
2018-10-16T17:30:02.233Z,101714.02
2018-10-16T17:32:29.158Z,101721.06
2018-10-16T17:34:56.091Z,101720.67
2018-10-16T17:37:23.041Z,101721.41
2018-10-16T17:39:49.985Z,101716.47
2018-10-16T17:42:16.966Z,101725.73
2018-10-16T17:44:43.895Z,101722.80
2018-10-16T17:47:10.835Z,101723.23
2018-10-16T17:49:37.778Z,101725.64
2018-10-16T17:52:04.766Z,101721.98
2018-10-16T17:54:31.677Z,101725.79
2018-10-16T17:56:58.639Z,101720.45
2018-10-16T17:59:25.597Z,101719.82
2018-10-16T18:01:52.804Z,101722.46
2018-10-16T18:04:19.756Z,101718.80
2018-10-16T18:06:46.673Z,101726.16
2018-10-16T18:09:14.952Z,101726.26
2018-10-16T18:11:42.130Z,101722.59
2018-10-16T18:14:09.772Z,101727.73
2018-10-16T18:16:37.063Z,101723.45
2018-10-16T18:19:04.403Z,101723.95
2018-10-16T18:21:32.421Z,101727.56
2018-10-16T18:23:59.388Z,101731.13
2018-10-16T18:26:26.341Z,101736.37
2018-10-16T18:28:53.260Z,101735.97
2018-10-16T18:31:20.184Z,101741.22
2018-10-16T18:33:47.098Z,101744.45
2018-10-16T18:36:14.028Z,101749.27
2018-10-16T18:38:40.986Z,101743.73
2018-10-16T18:41:07.900Z,101746.37
2018-10-16T18:43:34.956Z,101747.52
2018-10-16T18:46:01.890Z,101746.47
2018-10-16T18:48:28.925Z,101745.02
2018-10-16T18:50:55.830Z,101741.75
2018-10-16T18:53:22.755Z,101745.72
2018-10-16T18:55:49.687Z,101743.09
2018-10-16T18:58:16.621Z,101744.88
2018-10-16T19:00:43.653Z,101752.13
2018-10-16T19:03:10.616Z,101746.36
2018-10-16T19:05:37.554Z,101746.36
2018-10-16T19:08:05.134Z,101739.55
2018-10-16T19:10:32.153Z,101744.78
2018-10-16T19:13:01.492Z,101736.11
2018-10-16T19:15:28.950Z,101735.66
2018-10-16T19:17:55.882Z,101736.94
2018-10-16T19:20:22.842Z,101737.89
2018-10-16T19:22:49.868Z,101740.30
2018-10-16T19:25:18.518Z,101737.25
2018-10-16T19:27:45.558Z,101744.80
2018-10-16T19:30:12.842Z,101736.53
2018-10-16T19:32:39.782Z,101741.75
2018-10-16T19:35:07.493Z,101738.62
2018-10-16T19:37:34.528Z,101742.06
2018-10-16T19:40:01.491Z,101735.07
2018-10-16T19:42:28.481Z,101740.93
2018-10-16T19:44:55.425Z,101744.28
2018-10-16T19:47:22.352Z,101738.84
2018-10-16T19:49:49.371Z,101744.79
2018-10-16T19:52:16.334Z,101745.23
2018-10-16T19:54:43.257Z,101744.38
2018-10-16T19:57:10.339Z,101749.19
2018-10-16T19:59:37.276Z,101747.00
2018-10-16T20:02:05.101Z,101750.87
2018-10-16T20:04:32.067Z,101747.09
2018-10-16T20:06:59.050Z,101754.44
2018-10-16T20:09:25.967Z,101748.05
2018-10-16T20:11:53.682Z,101747.95
2018-10-16T20:14:20.764Z,101748.67
2018-10-16T20:16:47.597Z,101754.31
2018-10-16T20:19:14.549Z,101748.23
2018-10-16T20:21:41.485Z,101753.89
2018-10-16T20:24:08.427Z,101741.23
2018-10-16T20:26:35.388Z,101747.72
2018-10-16T20:29:02.345Z,101749.71
2018-10-16T20:31:30.365Z,101746.67
2018-10-16T20:33:57.471Z,101738.41
2018-10-16T20:36:24.517Z,101744.58
2018-10-16T20:38:51.348Z,101737.36
2018-10-16T20:41:18.284Z,101738.72
2018-10-16T20:43:45.284Z,101737.12
2018-10-16T20:46:12.236Z,101734.09
2018-10-16T20:48:39.183Z,101735.45
2018-10-16T20:51:06.112Z,101726.97
2018-10-16T20:53:33.622Z,101725.83
2018-10-16T20:56:00.616Z,101724.33
2018-10-16T20:58:27.558Z,101727.59
2018-10-16T21:00:54.888Z,101726.45
2018-10-16T21:03:21.962Z,101722.66
2018-10-16T21:05:49.116Z,101722.15
2018-10-16T21:08:15.988Z,101717.53
2018-10-16T21:10:42.928Z,101719.11
2018-10-16T21:13:09.859Z,101715.75
2018-10-16T21:15:36.804Z,101716.69
2018-10-16T21:18:04.093Z,101711.57
2018-10-16T21:20:31.004Z,101711.98
2018-10-16T21:22:58.100Z,101713.42
2018-10-16T21:25:25.017Z,101707.78
2018-10-16T21:27:52.609Z,101709.23
2018-10-16T21:30:20.013Z,101703.77
2018-10-16T21:32:46.969Z,101702.68
2018-10-16T21:35:13.956Z,101702.89
2018-10-16T21:37:40.868Z,101704.77
2018-10-16T21:40:08.851Z,101701.83
2018-10-16T21:42:35.932Z,101696.56
2018-10-16T21:45:02.986Z,101699.15
2018-10-16T21:47:30.193Z,101699.66
2018-10-16T21:49:57.249Z,101700.13
2018-10-16T21:52:24.359Z,101696.02
2018-10-16T21:54:51.304Z,101703.43
2018-10-16T21:57:18.252Z,101703.83
2018-10-16T21:59:45.436Z,101699.11
2018-10-16T22:02:18.221Z,101698.81
2018-10-16T22:04:45.162Z,101694.09
2018-10-16T22:07:12.157Z,101701.21
2018-10-16T22:09:39.025Z,101700.46
2018-10-16T22:12:06.097Z,101693.88
2018-10-16T22:14:33.144Z,101692.02
2018-10-16T22:17:00.071Z,101695.48
2018-10-16T22:19:27.022Z,101691.31
2018-10-16T22:21:55.333Z,101690.05
2018-10-16T22:24:22.286Z,101689.92
2018-10-16T22:26:49.213Z,101685.02
2018-10-16T22:29:16.240Z,101691.37
2018-10-16T22:31:43.147Z,101684.34
2018-10-16T22:34:10.089Z,101689.17
2018-10-16T22:36:37.008Z,101684.91
2018-10-16T22:39:06.833Z,101686.59
2018-10-16T22:41:33.737Z,101687.37
2018-10-16T22:44:00.672Z,101687.13
2018-10-16T22:46:27.608Z,101690.06
2018-10-16T22:48:54.580Z,101685.88
2018-10-16T22:51:21.441Z,101689.48
2018-10-16T22:53:48.363Z,101686.23
2018-10-16T22:56:15.260Z,101686.83
2018-10-16T22:58:42.164Z,101685.82
2018-10-16T23:01:09.115Z,101685.71
2018-10-16T23:03:35.983Z,101683.31
2018-10-16T23:06:03.170Z,101678.39
2018-10-16T23:08:30.266Z,101679.95
2018-10-16T23:10:57.260Z,101676.53
2018-10-16T23:13:24.336Z,101673.34
2018-10-16T23:15:51.420Z,101675.03
2018-10-16T23:18:18.399Z,101678.60
2018-10-16T23:20:45.516Z,101675.56
2018-10-16T23:23:12.524Z,101684.35
2018-10-16T23:25:39.530Z,101679.56
2018-10-16T23:28:06.973Z,101684.03
2018-10-16T23:30:34.731Z,101679.63
2018-10-16T23:33:01.801Z,101681.50
2018-10-16T23:35:29.134Z,101676.98
2018-10-16T23:37:56.164Z,101681.91
2018-10-16T23:40:23.299Z,101681.59
2018-10-16T23:42:50.305Z,101681.38
2018-10-16T23:45:17.432Z,101684.42
2018-10-16T23:47:44.356Z,101685.39
2018-10-16T23:50:11.296Z,101679.52
2018-10-16T23:52:38.253Z,101680.83
2018-10-16T23:55:06.620Z,101680.83
2018-10-16T23:57:33.553Z,101677.59
